Time;durP1;ratioP1;P1;durP2;ratioP2;P2;SDS_P1;SDS_P2;PMS_P1;PMS_P2;Temp;Humidity;BMP_temperature;BMP_pressure;BME280_temperature;BME280_humidity;BME280_pressure;Samples;Min_cycle;Max_cycle;Signal;HPM_P1;HPM_P2
2022/03/09 00:00:59;;;;;;;;;;;20.90;25.40;;;;;;5054284;28;19913;-60
2022/03/09 00:03:24;;;;;;;;;;;20.90;25.40;;;;;;5055457;28;19968;-62
2022/03/09 00:05:50;;;;;;;;;;;21.00;25.40;;;;;;5036981;28;20375;-63
2022/03/09 00:08:15;;;;;;;;;;;20.90;25.40;;;;;;5034000;28;19921;-60
2022/03/09 00:10:41;;;;;;;;;;;20.90;25.40;;;;;;5043827;28;20220;-62
2022/03/09 00:13:07;;;;;;;;;;;20.90;25.40;;;;;;5049894;28;19912;-59
2022/03/09 00:15:33;;;;;;;;;;;20.90;25.30;;;;;;5038263;28;19971;-61
2022/03/09 00:17:59;;;;;;;;;;;20.90;25.30;;;;;;5028928;28;19912;-63
2022/03/09 00:20:24;;;;;;;;;;;20.90;25.30;;;;;;5046491;28;19909;-62
2022/03/09 00:22:50;;;;;;;;;;;20.90;25.30;;;;;;5036501;28;20007;-61
2022/03/09 00:25:16;;;;;;;;;;;20.90;25.30;;;;;;5050264;28;20020;-62
2022/03/09 00:27:41;;;;;;;;;;;20.90;25.30;;;;;;5056042;28;19909;-60
2022/03/09 00:30:08;;;;;;;;;;;20.90;25.30;;;;;;5042046;28;20041;-61
2022/03/09 00:32:37;;;;;;;;;;;20.90;25.30;;;;;;5056738;28;19909;-59
2022/03/09 00:35:03;;;;;;;;;;;20.90;25.30;;;;;;5038370;28;20344;-60
2022/03/09 00:37:28;;;;;;;;;;;20.90;25.30;;;;;;5035629;28;19916;-61
2022/03/09 00:39:54;;;;;;;;;;;20.80;25.30;;;;;;5041237;28;19909;-61
2022/03/09 00:42:20;;;;;;;;;;;20.80;25.20;;;;;;5039442;28;20348;-62
2022/03/09 00:44:45;;;;;;;;;;;20.80;25.20;;;;;;5041333;28;19909;-58
2022/03/09 00:47:12;;;;;;;;;;;20.80;25.30;;;;;;5038500;28;19960;-60
2022/03/09 00:49:37;;;;;;;;;;;20.90;25.30;;;;;;5050873;28;20339;-61
2022/03/09 00:52:03;;;;;;;;;;;20.80;25.80;;;;;;5055316;28;19913;-61
2022/03/09 00:54:29;;;;;;;;;;;20.80;25.40;;;;;;5036799;28;19912;-61
2022/03/09 00:56:54;;;;;;;;;;;20.80;25.30;;;;;;5035798;28;19960;-61
2022/03/09 00:59:20;;;;;;;;;;;20.80;25.40;;;;;;5044425;28;19963;-62
2022/03/09 01:01:46;;;;;;;;;;;20.80;25.30;;;;;;5055760;28;19909;-59
2022/03/09 01:04:12;;;;;;;;;;;20.80;25.30;;;;;;5050420;28;20322;-60
2022/03/09 01:06:37;;;;;;;;;;;20.80;25.30;;;;;;5050916;28;19913;-61
2022/03/09 01:09:03;;;;;;;;;;;20.80;25.30;;;;;;5038566;28;19925;-60
2022/03/09 01:11:29;;;;;;;;;;;20.80;25.30;;;;;;5050970;28;20358;-60
2022/03/09 01:13:55;;;;;;;;;;;20.80;25.30;;;;;;5047883;28;19909;-57
2022/03/09 01:16:20;;;;;;;;;;;20.80;25.30;;;;;;5036478;28;19909;-60
2022/03/09 01:18:46;;;;;;;;;;;20.80;25.30;;;;;;5035376;28;19921;-61
2022/03/09 01:21:12;;;;;;;;;;;20.80;25.30;;;;;;5035340;28;19971;-59
2022/03/09 01:23:37;;;;;;;;;;;20.80;25.30;;;;;;5035162;28;19919;-58
2022/03/09 01:26:03;;;;;;;;;;;20.80;25.30;;;;;;5035647;28;19909;-61
2022/03/09 01:28:29;;;;;;;;;;;20.80;25.30;;;;;;5035609;28;20008;-61
2022/03/09 01:30:54;;;;;;;;;;;20.80;25.30;;;;;;5033254;28;19917;-60
2022/03/09 01:33:20;;;;;;;;;;;20.70;25.30;;;;;;5035224;28;20244;-63
2022/03/09 01:35:46;;;;;;;;;;;20.70;25.30;;;;;;5034565;28;19909;-60
2022/03/09 01:38:11;;;;;;;;;;;20.80;25.40;;;;;;5035062;28;19909;-61
2022/03/09 01:40:37;;;;;;;;;;;20.80;25.40;;;;;;5040764;28;19974;-60
2022/03/09 01:43:03;;;;;;;;;;;20.80;25.40;;;;;;5018418;28;19909;-59
2022/03/09 01:45:31;;;;;;;;;;;20.80;25.40;;;;;;5052009;28;19909;-59
2022/03/09 01:47:56;;;;;;;;;;;20.70;25.40;;;;;;5055083;28;20037;-62
2022/03/09 01:50:22;;;;;;;;;;;20.80;25.40;;;;;;5037213;28;20011;-61
2022/03/09 01:52:48;;;;;;;;;;;20.70;25.40;;;;;;5039231;28;19963;-62
2022/03/09 01:55:14;;;;;;;;;;;20.70;25.40;;;;;;5039925;28;19920;-60
2022/03/09 01:57:41;;;;;;;;;;;20.70;25.40;;;;;;5039147;28;19905;-60
2022/03/09 02:00:07;;;;;;;;;;;20.70;25.40;;;;;;5051224;28;19912;-59
2022/03/09 02:02:32;;;;;;;;;;;20.70;25.40;;;;;;5059390;28;19930;-58
2022/03/09 02:04:58;;;;;;;;;;;20.70;25.90;;;;;;5052338;28;19908;-61
2022/03/09 02:09:41;;;;;;;;;;;20.70;25.40;;;;;;5059044;28;19920;-61
2022/03/09 02:10:10;;;;;;;;;;;20.70;25.40;;;;;;5041163;28;19928;-60
2022/03/09 02:12:36;;;;;;;;;;;20.70;25.40;;;;;;5052824;28;19908;-59
2022/03/09 02:15:02;;;;;;;;;;;20.70;25.40;;;;;;5055096;28;19916;-59
2022/03/09 02:17:28;;;;;;;;;;;20.70;25.40;;;;;;5045792;28;19909;-63
2022/03/09 02:19:56;;;;;;;;;;;20.70;25.40;;;;;;5050731;28;19974;-61
2022/03/09 02:22:41;;;;;;;;;;;20.70;25.40;;;;;;5046386;28;20394;-61
2022/03/09 02:25:08;;;;;;;;;;;20.70;25.40;;;;;;5049160;28;19939;-61
2022/03/09 02:27:34;;;;;;;;;;;20.70;25.40;;;;;;5059208;28;20011;-58
2022/03/09 02:30:01;;;;;;;;;;;20.60;25.40;;;;;;5053287;28;20320;-59
2022/03/09 02:32:26;;;;;;;;;;;20.70;25.40;;;;;;5041699;28;20348;-61
2022/03/09 02:34:52;;;;;;;;;;;20.60;25.40;;;;;;5046340;28;19909;-60
2022/03/09 02:37:18;;;;;;;;;;;20.70;25.50;;;;;;5056775;28;20298;-62
2022/03/09 02:39:44;;;;;;;;;;;20.70;25.40;;;;;;5051271;28;19913;-60
2022/03/09 02:42:10;;;;;;;;;;;20.60;25.40;;;;;;5058357;28;19947;-59
2022/03/09 02:44:36;;;;;;;;;;;20.60;25.40;;;;;;5052320;28;19915;-60
2022/03/09 02:47:02;;;;;;;;;;;20.60;25.40;;;;;;5058290;28;19919;-62
2022/03/09 02:49:28;;;;;;;;;;;20.60;25.40;;;;;;5051634;28;19913;-60
2022/03/09 02:51:54;;;;;;;;;;;20.60;25.40;;;;;;5056498;28;20005;-61
2022/03/09 02:54:19;;;;;;;;;;;20.60;25.40;;;;;;5025384;28;19909;-62
2022/03/09 02:56:45;;;;;;;;;;;20.60;25.40;;;;;;5058227;28;19905;-59
2022/03/09 02:59:11;;;;;;;;;;;20.60;25.40;;;;;;5042264;28;19920;-59
2022/03/09 03:01:37;;;;;;;;;;;20.60;25.40;;;;;;5037741;28;20268;-63
2022/03/09 03:04:04;;;;;;;;;;;20.60;25.40;;;;;;5040736;28;19909;-60
2022/03/09 03:06:30;;;;;;;;;;;20.60;25.40;;;;;;5041276;28;19920;-60
2022/03/09 03:08:55;;;;;;;;;;;20.60;25.40;;;;;;5039374;28;19917;-61
2022/03/09 03:11:21;;;;;;;;;;;20.60;25.40;;;;;;5038779;28;19928;-60
2022/03/09 03:13:49;;;;;;;;;;;20.60;25.40;;;;;;5054314;28;19912;-60
2022/03/09 03:16:14;;;;;;;;;;;20.60;25.40;;;;;;5054564;28;19992;-60
2022/03/09 03:18:40;;;;;;;;;;;20.60;25.40;;;;;;5051982;28;19909;-60
2022/03/09 03:21:06;;;;;;;;;;;20.60;25.40;;;;;;5058451;28;19923;-61
2022/03/09 03:23:33;;;;;;;;;;;20.60;25.50;;;;;;5048568;28;20355;-60
2022/03/09 03:25:59;;;;;;;;;;;20.60;25.40;;;;;;5037232;28;19964;-60
2022/03/09 03:28:25;;;;;;;;;;;20.50;25.40;;;;;;5038685;28;19984;-61
2022/03/09 03:30:51;;;;;;;;;;;20.50;25.40;;;;;;5040338;28;19940;-60
2022/03/09 03:33:17;;;;;;;;;;;20.50;25.40;;;;;;5056802;28;19913;-60
2022/03/09 03:35:44;;;;;;;;;;;20.50;25.40;;;;;;5052288;28;19921;-60
2022/03/09 03:38:10;;;;;;;;;;;20.50;25.40;;;;;;5054865;28;20281;-59
2022/03/09 03:40:36;;;;;;;;;;;20.50;25.40;;;;;;5051406;28;19974;-63
2022/03/09 03:43:02;;;;;;;;;;;20.50;25.40;;;;;;5027242;28;20344;-61
2022/03/09 03:45:27;;;;;;;;;;;20.50;25.40;;;;;;5052976;28;19924;-61
2022/03/09 03:47:53;;;;;;;;;;;20.50;25.40;;;;;;5036727;28;19920;-62
2022/03/09 03:50:19;;;;;;;;;;;20.50;25.40;;;;;;5041912;28;20019;-60
2022/03/09 03:52:45;;;;;;;;;;;20.50;25.40;;;;;;5055007;28;20378;-59
2022/03/09 03:55:10;;;;;;;;;;;20.50;25.40;;;;;;5047185;28;19931;-62
2022/03/09 03:57:36;;;;;;;;;;;20.50;25.40;;;;;;5054620;28;19924;-62
2022/03/09 04:00:05;;;;;;;;;;;20.50;25.40;;;;;;5054556;28;19919;-59
2022/03/09 04:02:31;;;;;;;;;;;20.50;25.40;;;;;;5036103;28;20336;-63
2022/03/09 04:04:57;;;;;;;;;;;20.50;25.40;;;;;;5004095;28;19956;-62
2022/03/09 04:07:22;;;;;;;;;;;20.50;25.40;;;;;;5009872;28;20432;-63
2022/03/09 04:09:48;;;;;;;;;;;20.50;25.40;;;;;;5013297;28;20003;-62
2022/03/09 04:12:14;;;;;;;;;;;20.50;25.40;;;;;;5010964;28;19913;-59
2022/03/09 04:14:39;;;;;;;;;;;20.50;25.40;;;;;;5013361;28;19917;-54
2022/03/09 04:17:05;;;;;;;;;;;20.50;25.40;;;;;;4997656;28;19983;-60
2022/03/09 04:19:31;;;;;;;;;;;20.50;25.40;;;;;;5000291;28;19910;-61
2022/03/09 04:21:56;;;;;;;;;;;20.50;25.50;;;;;;5009270;28;19917;-59
2022/03/09 04:24:22;;;;;;;;;;;20.40;25.40;;;;;;5013500;28;19950;-59
2022/03/09 04:26:48;;;;;;;;;;;20.40;25.40;;;;;;5010794;28;19917;-59
2022/03/09 04:29:13;;;;;;;;;;;20.50;25.50;;;;;;5011747;28;19919;-58
2022/03/09 04:31:39;;;;;;;;;;;20.40;25.40;;;;;;4996253;28;20327;-61
2022/03/09 04:34:05;;;;;;;;;;;20.40;25.40;;;;;;4996241;28;20321;-60
2022/03/09 04:36:31;;;;;;;;;;;20.50;25.40;;;;;;5016740;28;19960;-59
2022/03/09 04:38:57;;;;;;;;;;;20.40;25.40;;;;;;5016482;28;19940;-61
2022/03/09 04:41:23;;;;;;;;;;;20.40;25.40;;;;;;5032031;28;19920;-59
2022/03/09 04:43:48;;;;;;;;;;;20.40;25.40;;;;;;5036190;28;19909;-59
2022/03/09 04:46:14;;;;;;;;;;;20.40;25.40;;;;;;5018338;28;19917;-59
2022/03/09 04:48:42;;;;;;;;;;;20.40;25.40;;;;;;5016463;28;19959;-61
2022/03/09 04:51:09;;;;;;;;;;;20.40;25.40;;;;;;5029591;28;20308;-60
2022/03/09 04:53:34;;;;;;;;;;;20.40;25.40;;;;;;5036388;28;19984;-60
2022/03/09 04:56:00;;;;;;;;;;;20.40;25.40;;;;;;5030849;28;19909;-60
2022/03/09 04:58:26;;;;;;;;;;;20.40;25.40;;;;;;5035758;28;19917;-60
2022/03/09 05:00:52;;;;;;;;;;;20.40;25.40;;;;;;5024325;28;20003;-60
2022/03/09 05:03:18;;;;;;;;;;;20.40;25.40;;;;;;5036373;28;19949;-60
2022/03/09 05:05:44;;;;;;;;;;;20.40;25.40;;;;;;5023698;28;19966;-61
2022/03/09 05:08:09;;;;;;;;;;;20.40;25.40;;;;;;5028841;28;19917;-61
2022/03/09 05:10:35;;;;;;;;;;;20.40;25.40;;;;;;5044913;28;20325;-61
2022/03/09 05:13:01;;;;;;;;;;;20.40;25.40;;;;;;5055406;28;19908;-61
2022/03/09 05:15:27;;;;;;;;;;;20.40;25.40;;;;;;5044127;28;19931;-60
2022/03/09 05:17:53;;;;;;;;;;;20.30;25.40;;;;;;5050546;28;19908;-58
2022/03/09 05:20:20;;;;;;;;;;;20.30;25.40;;;;;;5049496;28;19956;-60
2022/03/09 05:22:47;;;;;;;;;;;20.30;25.40;;;;;;5028424;28;20251;-60
2022/03/09 05:25:14;;;;;;;;;;;20.30;25.40;;;;;;5043224;28;19921;-60
2022/03/09 05:27:40;;;;;;;;;;;20.40;25.40;;;;;;5054477;28;19908;-58
2022/03/09 05:30:06;;;;;;;;;;;20.40;25.40;;;;;;5029451;28;19928;-57
2022/03/09 05:32:32;;;;;;;;;;;20.30;25.50;;;;;;5036411;28;19913;-61
2022/03/09 05:34:58;;;;;;;;;;;20.30;25.40;;;;;;5039084;28;19924;-59
2022/03/09 05:37:24;;;;;;;;;;;20.40;25.40;;;;;;5052474;28;19908;-60
2022/03/09 05:39:50;;;;;;;;;;;20.30;25.40;;;;;;5035744;28;19909;-61
2022/03/09 05:42:16;;;;;;;;;;;20.30;25.40;;;;;;5053686;28;19909;-60
2022/03/09 05:44:42;;;;;;;;;;;20.30;25.40;;;;;;5033003;28;20000;-61
2022/03/09 05:47:07;;;;;;;;;;;20.30;25.40;;;;;;5036693;28;19996;-60
2022/03/09 05:49:33;;;;;;;;;;;20.30;25.40;;;;;;5042326;28;19913;-61
2022/03/09 05:51:59;;;;;;;;;;;20.30;25.40;;;;;;5051608;28;19948;-61
2022/03/09 05:54:24;;;;;;;;;;;20.30;25.90;;;;;;5039614;28;19920;-61
2022/03/09 05:56:50;;;;;;;;;;;20.30;25.40;;;;;;5051866;28;19986;-60
2022/03/09 05:59:17;;;;;;;;;;;20.30;25.40;;;;;;5043619;28;19909;-58
2022/03/09 06:01:42;;;;;;;;;;;20.30;25.40;;;;;;5050142;28;19971;-59
2022/03/09 06:04:08;;;;;;;;;;;20.30;25.40;;;;;;5053644;28;19909;-60
2022/03/09 06:06:34;;;;;;;;;;;20.30;25.40;;;;;;5051533;28;19909;-60
2022/03/09 06:08:59;;;;;;;;;;;20.30;25.40;;;;;;5054327;28;19917;-62
2022/03/09 06:11:25;;;;;;;;;;;20.20;25.80;;;;;;5033738;28;19917;-62
2022/03/09 06:13:51;;;;;;;;;;;20.20;25.30;;;;;;5054005;28;19963;-60
2022/03/09 06:16:17;;;;;;;;;;;20.30;25.40;;;;;;5052203;28;20030;-62
2022/03/09 06:18:46;;;;;;;;;;;20.20;25.30;;;;;;5036694;28;20011;-58
2022/03/09 06:21:13;;;;;;;;;;;20.30;25.40;;;;;;5051562;28;20050;-59
2022/03/09 06:23:39;;;;;;;;;;;20.20;25.30;;;;;;5054633;28;19908;-62
2022/03/09 06:26:05;;;;;;;;;;;20.20;25.30;;;;;;5046721;28;19966;-60
2022/03/09 06:28:30;;;;;;;;;;;20.20;25.30;;;;;;5037313;28;20243;-60
2022/03/09 06:30:56;;;;;;;;;;;20.20;25.30;;;;;;5049173;28;19921;-63
2022/03/09 06:33:22;;;;;;;;;;;20.20;25.40;;;;;;5054469;28;19919;-61
2022/03/09 06:35:49;;;;;;;;;;;20.20;25.30;;;;;;5047017;28;19909;-61
2022/03/09 06:38:14;;;;;;;;;;;20.20;25.30;;;;;;5059072;28;19909;-62
2022/03/09 06:40:40;;;;;;;;;;;20.20;25.30;;;;;;5052026;28;19928;-62
2022/03/09 06:43:06;;;;;;;;;;;20.20;25.30;;;;;;5054271;28;20370;-62
2022/03/09 06:45:31;;;;;;;;;;;20.20;25.30;;;;;;5052031;28;19916;-57
2022/03/09 06:47:57;;;;;;;;;;;20.20;25.40;;;;;;5055011;28;19918;-62
2022/03/09 06:50:23;;;;;;;;;;;20.20;25.30;;;;;;5052044;28;19970;-61
2022/03/09 06:52:49;;;;;;;;;;;20.20;25.40;;;;;;5056743;28;20344;-58
2022/03/09 06:55:15;;;;;;;;;;;20.20;25.40;;;;;;5041041;28;19967;-58
2022/03/09 06:57:41;;;;;;;;;;;20.20;25.40;;;;;;5022465;28;19913;-61
2022/03/09 07:00:08;;;;;;;;;;;20.20;25.40;;;;;;5037711;28;19978;-61
2022/03/09 07:02:34;;;;;;;;;;;20.20;25.40;;;;;;5038808;28;19920;-60
2022/03/09 07:04:59;;;;;;;;;;;20.20;25.40;;;;;;5044839;28;19909;-59
2022/03/09 07:07:25;;;;;;;;;;;20.20;25.40;;;;;;5048640;28;19927;-61
2022/03/09 07:09:51;;;;;;;;;;;20.20;25.40;;;;;;5057747;28;20223;-60
2022/03/09 07:12:17;;;;;;;;;;;20.20;25.40;;;;;;5048335;28;19913;-61
2022/03/09 07:14:45;;;;;;;;;;;20.20;25.40;;;;;;5040946;28;19909;-59
2022/03/09 07:17:11;;;;;;;;;;;20.20;25.50;;;;;;5038997;28;19917;-58
2022/03/09 07:19:36;;;;;;;;;;;20.20;25.50;;;;;;5044125;28;20336;-55
2022/03/09 07:22:02;;;;;;;;;;;20.20;25.50;;;;;;5037826;28;19916;-57
2022/03/09 07:24:28;;;;;;;;;;;20.20;25.50;;;;;;5041036;28;20267;-58
2022/03/09 07:26:56;;;;;;;;;;;20.20;25.50;;;;;;5042408;28;20000;-58
2022/03/09 07:29:22;;;;;;;;;;;20.20;25.50;;;;;;5036967;28;20324;-62
2022/03/09 07:31:48;;;;;;;;;;;20.20;25.50;;;;;;5055064;28;19935;-59
2022/03/09 07:34:13;;;;;;;;;;;20.20;25.50;;;;;;5050588;28;19909;-59
2022/03/09 07:36:39;;;;;;;;;;;20.20;25.50;;;;;;5037161;28;20294;-57
2022/03/09 07:39:05;;;;;;;;;;;20.20;25.50;;;;;;5049934;28;19928;-59
2022/03/09 07:41:30;;;;;;;;;;;20.20;25.50;;;;;;5055614;28;19916;-58
2022/03/09 07:43:56;;;;;;;;;;;20.20;25.50;;;;;;5051844;28;19929;-58
2022/03/09 07:46:22;;;;;;;;;;;20.20;25.50;;;;;;5042012;28;19928;-55
2022/03/09 07:48:47;;;;;;;;;;;20.20;25.50;;;;;;5040014;28;20349;-57
2022/03/09 07:51:13;;;;;;;;;;;20.20;25.60;;;;;;5036764;28;19924;-58
2022/03/09 07:53:42;;;;;;;;;;;20.20;25.60;;;;;;5049751;28;20208;-59
2022/03/09 07:56:09;;;;;;;;;;;20.20;25.60;;;;;;5056345;28;19919;-59
2022/03/09 07:58:35;;;;;;;;;;;20.20;25.60;;;;;;5049677;28;19917;-57
2022/03/09 08:01:04;;;;;;;;;;;20.20;25.60;;;;;;5049968;28;20337;-59
2022/03/09 08:03:30;;;;;;;;;;;20.20;25.60;;;;;;5024999;28;19967;-58
2022/03/09 08:05:55;;;;;;;;;;;20.20;25.70;;;;;;5040388;28;20206;-57
2022/03/09 08:08:23;;;;;;;;;;;20.20;25.70;;;;;;5055849;28;19970;-59
2022/03/09 08:10:51;;;;;;;;;;;20.20;25.70;;;;;;5049863;28;19927;-56
2022/03/09 08:13:17;;;;;;;;;;;20.20;25.80;;;;;;5050333;28;20363;-59
2022/03/09 08:15:42;;;;;;;;;;;20.20;25.80;;;;;;5045276;28;19908;-59
2022/03/09 08:18:08;;;;;;;;;;;20.20;25.80;;;;;;5049785;28;19909;-57
2022/03/09 08:20:35;;;;;;;;;;;20.20;25.80;;;;;;5050515;28;19952;-60
2022/03/09 08:23:01;;;;;;;;;;;20.20;25.80;;;;;;5032606;28;19917;-56
2022/03/09 08:25:27;;;;;;;;;;;20.20;25.80;;;;;;5035701;28;19969;-56
2022/03/09 08:27:52;;;;;;;;;;;20.20;25.80;;;;;;5044725;28;20268;-53
2022/03/09 08:30:18;;;;;;;;;;;20.20;25.80;;;;;;5052705;28;19916;-54
2022/03/09 08:32:44;;;;;;;;;;;20.20;25.80;;;;;;5037089;28;19909;-53
2022/03/09 08:35:09;;;;;;;;;;;20.20;25.80;;;;;;5037460;28;19913;-59
2022/03/09 08:37:35;;;;;;;;;;;20.20;25.90;;;;;;5044912;28;20224;-55
2022/03/09 08:40:01;;;;;;;;;;;20.20;25.80;;;;;;5040580;28;19921;-53
2022/03/09 08:42:27;;;;;;;;;;;20.20;25.80;;;;;;5029410;28;19923;-53
2022/03/09 08:44:53;;;;;;;;;;;20.20;25.90;;;;;;5029730;28;20031;-60
2022/03/09 08:47:19;;;;;;;;;;;20.20;25.80;;;;;;5038560;28;19999;-60
2022/03/09 08:49:45;;;;;;;;;;;20.20;25.80;;;;;;5049846;28;19986;-61
2022/03/09 08:52:11;;;;;;;;;;;20.20;25.80;;;;;;5051252;28;19908;-60
2022/03/09 08:54:37;;;;;;;;;;;20.20;25.80;;;;;;5047493;28;19913;-59
2022/03/09 08:57:04;;;;;;;;;;;20.20;25.80;;;;;;5041032;28;20355;-60
2022/03/09 08:59:30;;;;;;;;;;;20.20;25.80;;;;;;5052616;28;20016;-59
2022/03/09 09:01:55;;;;;;;;;;;20.20;25.80;;;;;;5052086;28;19999;-60
2022/03/09 09:04:22;;;;;;;;;;;20.20;25.90;;;;;;5049408;28;19909;-60
2022/03/09 09:06:48;;;;;;;;;;;20.20;25.90;;;;;;5052473;28;19917;-62
2022/03/09 09:09:14;;;;;;;;;;;20.20;25.90;;;;;;5050269;28;19966;-59
2022/03/09 09:11:41;;;;;;;;;;;20.20;25.90;;;;;;5053646;28;19917;-61
2022/03/09 09:14:06;;;;;;;;;;;20.30;25.90;;;;;;5054838;28;20285;-59
2022/03/09 09:16:32;;;;;;;;;;;20.20;25.90;;;;;;5055387;28;19947;-60
2022/03/09 09:18:58;;;;;;;;;;;20.20;25.80;;;;;;5055077;28;20209;-59
2022/03/09 09:21:24;;;;;;;;;;;20.30;25.80;;;;;;5045745;28;19920;-57
2022/03/09 09:23:50;;;;;;;;;;;20.20;25.80;;;;;;5041574;28;19909;-61
2022/03/09 09:26:16;;;;;;;;;;;20.20;25.70;;;;;;5025189;28;20217;-57
2022/03/09 09:28:42;;;;;;;;;;;20.20;25.70;;;;;;5038894;28;20003;-62
2022/03/09 09:31:08;;;;;;;;;;;20.20;25.60;;;;;;5044270;28;20072;-57
2022/03/09 09:33:34;;;;;;;;;;;20.20;25.60;;;;;;5055414;28;19908;-62
2022/03/09 09:35:59;;;;;;;;;;;20.20;25.60;;;;;;5047089;28;20336;-56
2022/03/09 09:38:27;;;;;;;;;;;20.20;25.50;;;;;;5051607;28;19995;-57
2022/03/09 09:40:55;;;;;;;;;;;20.20;25.50;;;;;;5041858;28;19920;-60
2022/03/09 09:43:22;;;;;;;;;;;20.20;25.40;;;;;;5035651;28;19909;-61
2022/03/09 09:45:47;;;;;;;;;;;20.20;25.40;;;;;;5035896;28;19999;-61
2022/03/09 09:48:13;;;;;;;;;;;20.20;25.40;;;;;;5037508;28;19980;-59
2022/03/09 09:50:39;;;;;;;;;;;20.20;25.30;;;;;;5035020;28;20026;-58
2022/03/09 09:53:06;;;;;;;;;;;20.20;25.30;;;;;;5050204;28;20271;-56
2022/03/09 09:55:32;;;;;;;;;;;20.20;25.30;;;;;;5055232;28;20231;-58
2022/03/09 09:57:58;;;;;;;;;;;20.20;25.30;;;;;;5040629;28;19909;-60
2022/03/09 10:00:24;;;;;;;;;;;20.20;25.30;;;;;;5042689;28;19919;-60
2022/03/09 10:02:50;;;;;;;;;;;20.20;25.20;;;;;;5054809;28;19937;-60
2022/03/09 10:05:18;;;;;;;;;;;20.20;25.20;;;;;;5053227;28;20332;-55
2022/03/09 10:08:02;;;;;;;;;;;20.20;25.20;;;;;;5037270;28;19960;-59
2022/03/09 10:10:28;;;;;;;;;;;20.20;25.20;;;;;;5043652;28;20004;-61
2022/03/09 10:13:09;;;;;;;;;;;20.20;25.10;;;;;;5038838;28;19971;-59
2022/03/09 10:15:34;;;;;;;;;;;20.20;25.10;;;;;;5051971;28;20209;-60
2022/03/09 10:18:17;;;;;;;;;;;20.20;25.10;;;;;;5054666;28;19913;-60
2022/03/09 10:20:44;;;;;;;;;;;20.20;25.10;;;;;;5055431;28;19909;-60
2022/03/09 10:23:09;;;;;;;;;;;20.20;25.10;;;;;;5054945;28;19919;-56
2022/03/09 10:25:38;;;;;;;;;;;20.20;25.10;;;;;;5058107;28;19956;-60
2022/03/09 10:28:13;;;;;;;;;;;20.20;25.10;;;;;;5058427;28;19973;-61
2022/03/09 10:30:39;;;;;;;;;;;20.20;25.10;;;;;;5055351;28;19916;-58
2022/03/09 10:33:06;;;;;;;;;;;20.20;25.10;;;;;;5058757;28;19920;-61
2022/03/09 10:35:32;;;;;;;;;;;20.20;25.10;;;;;;5052942;28;19904;-60
2022/03/09 10:37:58;;;;;;;;;;;20.20;25.10;;;;;;5055546;28;20339;-59
2022/03/09 10:40:25;;;;;;;;;;;20.20;25.10;;;;;;5047981;28;19920;-61
2022/03/09 10:43:08;;;;;;;;;;;20.10;25.10;;;;;;5058205;28;19908;-61
2022/03/09 10:45:33;;;;;;;;;;;20.20;25.10;;;;;;5056503;28;19994;-60
2022/03/09 10:48:00;;;;;;;;;;;20.20;25.10;;;;;;5058264;28;20332;-57
2022/03/09 10:50:28;;;;;;;;;;;20.10;25.10;;;;;;5052690;28;19916;-60
2022/03/09 10:52:53;;;;;;;;;;;20.10;25.10;;;;;;5057957;28;19913;-56
2022/03/09 10:55:19;;;;;;;;;;;20.10;25.10;;;;;;5056764;28;19962;-62
2022/03/09 10:57:44;;;;;;;;;;;20.10;25.10;;;;;;5056478;28;19921;-61
2022/03/09 11:00:11;;;;;;;;;;;20.10;25.10;;;;;;5053535;28;19908;-58
2022/03/09 11:02:47;;;;;;;;;;;20.10;25.10;;;;;;5053676;28;19927;-61
2022/03/09 11:05:13;;;;;;;;;;;20.20;25.10;;;;;;5056376;28;19975;-61
2022/03/09 11:07:39;;;;;;;;;;;20.20;25.10;;;;;;5053256;28;19925;-56
2022/03/09 11:10:08;;;;;;;;;;;20.20;25.10;;;;;;5054587;28;19917;-60
2022/03/09 11:12:35;;;;;;;;;;;20.20;25.10;;;;;;5057112;28;19919;-62
2022/03/09 11:15:01;;;;;;;;;;;20.10;25.10;;;;;;5053061;28;19909;-60
2022/03/09 11:17:27;;;;;;;;;;;20.10;25.10;;;;;;5038367;28;19909;-59
2022/03/09 11:19:52;;;;;;;;;;;20.10;25.10;;;;;;5031539;28;19916;-61
2022/03/09 11:22:18;;;;;;;;;;;20.10;25.10;;;;;;5053301;28;19909;-54
2022/03/09 11:24:44;;;;;;;;;;;20.20;25.20;;;;;;5048736;28;19909;-60
2022/03/09 11:27:10;;;;;;;;;;;20.20;25.30;;;;;;5041316;28;20355;-60
2022/03/09 11:29:37;;;;;;;;;;;20.20;25.40;;;;;;5056545;28;19931;-56
2022/03/09 11:32:05;;;;;;;;;;;20.20;25.40;;;;;;5054625;28;19952;-61
2022/03/09 11:34:30;;;;;;;;;;;20.20;25.40;;;;;;5056517;28;19909;-60
2022/03/09 11:36:57;;;;;;;;;;;20.20;25.60;;;;;;5056815;28;19909;-59
2022/03/09 11:39:24;;;;;;;;;;;20.30;25.80;;;;;;5057015;28;19909;-62
2022/03/09 11:42:10;;;;;;;;;;;20.40;25.90;;;;;;5056707;28;19909;-59
2022/03/09 11:44:38;;;;;;;;;;;20.50;26.00;;;;;;5056794;28;20312;-61
2022/03/09 11:47:04;;;;;;;;;;;20.50;26.00;;;;;;5056750;28;19908;-57
2022/03/09 11:49:54;;;;;;;;;;;20.60;26.10;;;;;;5057086;28;20216;-55
2022/03/09 11:52:19;;;;;;;;;;;20.70;26.20;;;;;;5056897;28;19984;-56
2022/03/09 11:54:46;;;;;;;;;;;20.70;26.20;;;;;;5057186;28;20312;-58
2022/03/09 11:57:12;;;;;;;;;;;20.80;26.30;;;;;;5038865;28;19919;-56
2022/03/09 11:59:39;;;;;;;;;;;20.80;26.30;;;;;;5056042;28;19908;-56
2022/03/09 12:02:10;;;;;;;;;;;20.90;26.30;;;;;;5042705;28;19936;-56
2022/03/09 12:04:51;;;;;;;;;;;21.00;26.40;;;;;;5039191;28;20223;-56
2022/03/09 12:07:33;;;;;;;;;;;21.00;26.30;;;;;;5056543;28;20340;-58
2022/03/09 12:10:00;;;;;;;;;;;21.00;26.30;;;;;;5038134;28;19971;-53
2022/03/09 12:12:27;;;;;;;;;;;21.00;26.40;;;;;;5055973;28;20037;-53
2022/03/09 12:15:06;;;;;;;;;;;21.10;26.40;;;;;;5056489;28;19920;-57
2022/03/09 12:17:37;;;;;;;;;;;21.10;26.40;;;;;;5056222;28;19920;-53
2022/03/09 12:20:18;;;;;;;;;;;21.20;26.40;;;;;;5056077;28;19909;-54
2022/03/09 12:22:59;;;;;;;;;;;21.20;26.40;;;;;;5050395;28;19921;-55
2022/03/09 12:25:40;;;;;;;;;;;21.20;26.40;;;;;;5045027;28;20000;-57
2022/03/09 12:28:21;;;;;;;;;;;21.20;26.40;;;;;;5047327;28;20324;-54
2022/03/09 12:30:53;;;;;;;;;;;21.30;26.40;;;;;;5050157;28;19917;-53
2022/03/09 12:33:38;;;;;;;;;;;21.40;26.50;;;;;;5037893;28;20201;-53
2022/03/09 12:36:05;;;;;;;;;;;21.40;26.40;;;;;;5046374;28;20320;-54
2022/03/09 12:38:38;;;;;;;;;;;21.50;26.50;;;;;;5052471;28;20260;-55
2022/03/09 12:41:03;;;;;;;;;;;21.50;26.40;;;;;;5048535;28;19909;-56
2022/03/09 12:43:48;;;;;;;;;;;21.50;26.40;;;;;;5055220;28;19962;-53
2022/03/09 12:46:14;;;;;;;;;;;21.60;26.40;;;;;;5042750;28;19919;-50
2022/03/09 12:48:40;;;;;;;;;;;21.70;26.40;;;;;;5042586;28;19909;-52
2022/03/09 12:51:06;;;;;;;;;;;21.70;26.40;;;;;;5043152;28;19917;-54
2022/03/09 12:53:32;;;;;;;;;;;21.70;26.40;;;;;;5039616;28;19913;-53
2022/03/09 12:56:11;;;;;;;;;;;21.80;26.40;;;;;;5046684;28;19913;-55
2022/03/09 12:58:37;;;;;;;;;;;21.80;26.40;;;;;;5049030;28;19940;-56
2022/03/09 13:01:04;;;;;;;;;;;21.80;26.40;;;;;;5045610;28;19960;-54
2022/03/09 13:03:30;;;;;;;;;;;21.90;26.40;;;;;;5051609;28;19913;-57
2022/03/09 13:05:56;;;;;;;;;;;21.90;26.90;;;;;;5040975;28;19967;-53
2022/03/09 13:08:21;;;;;;;;;;;21.90;26.30;;;;;;5054872;28;19979;-55
2022/03/09 13:10:51;;;;;;;;;;;22.00;26.40;;;;;;5055180;28;19972;-55
2022/03/09 13:13:27;;;;;;;;;;;22.00;26.30;;;;;;5047616;28;20897;-51
2022/03/09 13:15:59;;;;;;;;;;;22.10;26.40;;;;;;5044039;28;19919;-60
2022/03/09 13:18:25;;;;;;;;;;;22.10;26.30;;;;;;5050945;28;19978;-53
2022/03/09 13:20:51;;;;;;;;;;;22.10;26.30;;;;;;5042576;28;19925;-54
2022/03/09 13:23:37;;;;;;;;;;;22.10;26.30;;;;;;5045461;28;19924;-51
2022/03/09 13:26:23;;;;;;;;;;;22.20;26.30;;;;;;5039734;28;19908;-53
2022/03/09 13:28:52;;;;;;;;;;;22.20;26.20;;;;;;5047585;28;19967;-55
2022/03/09 13:31:18;;;;;;;;;;;22.30;26.20;;;;;;5043429;28;19938;-53
2022/03/09 13:33:48;;;;;;;;;;;22.30;26.20;;;;;;5043353;28;20220;-53
2022/03/09 13:36:15;;;;;;;;;;;22.30;26.20;;;;;;5046049;28;19952;-52
2022/03/09 13:38:52;;;;;;;;;;;22.30;26.20;;;;;;5045243;28;19919;-50
2022/03/09 13:41:18;;;;;;;;;;;22.40;26.20;;;;;;5045243;28;20303;-51
2022/03/09 13:43:44;;;;;;;;;;;22.40;26.70;;;;;;5042089;28;19952;-58
2022/03/09 13:46:13;;;;;;;;;;;22.40;26.20;;;;;;5042937;28;20004;-55
2022/03/09 13:48:40;;;;;;;;;;;22.40;26.10;;;;;;5042371;28;19909;-51
2022/03/09 13:51:12;;;;;;;;;;;22.40;26.20;;;;;;5046754;28;19937;-49
2022/03/09 13:53:41;;;;;;;;;;;22.40;26.20;;;;;;5043685;28;19909;-54
2022/03/09 13:56:17;;;;;;;;;;;22.50;26.20;;;;;;5040075;28;19923;-50
2022/03/09 13:58:42;;;;;;;;;;;22.50;26.20;;;;;;5040214;28;19913;-51
2022/03/09 14:01:09;;;;;;;;;;;22.50;26.10;;;;;;5038459;28;20084;-50
2022/03/09 14:04:03;;;;;;;;;;;22.50;26.10;;;;;;5039048;28;20275;-50
2022/03/09 14:06:29;;;;;;;;;;;22.60;26.10;;;;;;5039829;28;19919;-51
2022/03/09 14:08:55;;;;;;;;;;;22.70;26.10;;;;;;5042888;28;20016;-48
2022/03/09 14:11:21;;;;;;;;;;;22.70;26.00;;;;;;5041158;28;19932;-50
2022/03/09 14:14:05;;;;;;;;;;;22.70;26.00;;;;;;5039759;28;20002;-56
2022/03/09 14:16:35;;;;;;;;;;;22.80;26.00;;;;;;5044431;28;19944;-49